sensor_id;sensor_type;location;lat;lon;timestamp;P1;durP1;ratioP1;P2;durP2;ratioP2
42602;SDS011;28233;55.748;48.752;2022-10-16T00:01:59;4.10;;;1.95;;
42602;SDS011;28233;55.748;48.752;2022-10-16T00:04:02;3.88;;;2.22;;
42602;SDS011;28233;55.748;48.752;2022-10-16T00:06:05;6.55;;;2.53;;
42602;SDS011;28233;55.748;48.752;2022-10-16T00:08:09;6.60;;;2.22;;
42602;SDS011;28233;55.748;48.752;2022-10-16T00:10:15;6.10;;;2.65;;
42602;SDS011;28233;55.748;48.752;2022-10-16T00:12:18;5.15;;;2.38;;
42602;SDS011;28233;55.748;48.752;2022-10-16T00:14:21;4.03;;;2.28;;
42602;SDS011;28233;55.748;48.752;2022-10-16T00:16:24;4.72;;;2.53;;
42602;SDS011;28233;55.748;48.752;2022-10-16T00:18:27;3.80;;;2.30;;
42602;SDS011;28233;55.748;48.752;2022-10-16T00:20:33;4.80;;;2.80;;
42602;SDS011;28233;55.748;48.752;2022-10-16T00:22:55;6.65;;;3.05;;
42602;SDS011;28233;55.748;48.752;2022-10-16T00:24:58;5.60;;;3.08;;
42602;SDS011;28233;55.748;48.752;2022-10-16T00:27:01;2.88;;;2.15;;
42602;SDS011;28233;55.748;48.752;2022-10-16T00:29:04;4.03;;;2.72;;
42602;SDS011;28233;55.748;48.752;2022-10-16T00:31:09;6.20;;;3.05;;
42602;SDS011;28233;55.748;48.752;2022-10-16T00:33:13;4.28;;;2.92;;
42602;SDS011;28233;55.748;48.752;2022-10-16T00:35:16;4.53;;;2.30;;
42602;SDS011;28233;55.748;48.752;2022-10-16T00:37:18;6.70;;;2.45;;
42602;SDS011;28233;55.748;48.752;2022-10-16T00:39:21;5.10;;;2.90;;
42602;SDS011;28233;55.748;48.752;2022-10-16T00:41:24;3.72;;;2.28;;
42602;SDS011;28233;55.748;48.752;2022-10-16T00:43:35;4.47;;;2.63;;
42602;SDS011;28233;55.748;48.752;2022-10-16T00:45:38;5.78;;;3.05;;
42602;SDS011;28233;55.748;48.752;2022-10-16T00:47:42;6.18;;;2.78;;
42602;SDS011;28233;55.748;48.752;2022-10-16T00:49:50;5.70;;;2.88;;
42602;SDS011;28233;55.748;48.752;2022-10-16T00:51:55;4.97;;;2.70;;
42602;SDS011;28233;55.748;48.752;2022-10-16T00:53:58;6.03;;;3.30;;
42602;SDS011;28233;55.748;48.752;2022-10-16T00:56:03;6.03;;;2.85;;
42602;SDS011;28233;55.748;48.752;2022-10-16T00:58:06;5.85;;;3.25;;
42602;SDS011;28233;55.748;48.752;2022-10-16T01:00:10;6.03;;;3.03;;
42602;SDS011;28233;55.748;48.752;2022-10-16T01:02:17;5.10;;;3.20;;
42602;SDS011;28233;55.748;48.752;2022-10-16T01:04:21;4.68;;;2.60;;
42602;SDS011;28233;55.748;48.752;2022-10-16T01:06:33;6.72;;;2.92;;
42602;SDS011;28233;55.748;48.752;2022-10-16T01:08:49;4.72;;;3.08;;
42602;SDS011;28233;55.748;48.752;2022-10-16T01:11:22;6.88;;;2.65;;
42602;SDS011;28233;55.748;48.752;2022-10-16T01:13:42;7.07;;;3.15;;
42602;SDS011;28233;55.748;48.752;2022-10-16T01:18:01;6.15;;;3.40;;
42602;SDS011;28233;55.748;48.752;2022-10-16T01:20:26;4.60;;;2.60;;
42602;SDS011;28233;55.748;48.752;2022-10-16T01:22:41;6.13;;;2.67;;
42602;SDS011;28233;55.748;48.752;2022-10-16T01:24:58;7.25;;;3.15;;
42602;SDS011;28233;55.748;48.752;2022-10-16T01:27:09;6.32;;;3.38;;
42602;SDS011;28233;55.748;48.752;2022-10-16T01:31:24;6.72;;;2.92;;
42602;SDS011;28233;55.748;48.752;2022-10-16T01:33:35;5.72;;;3.33;;
42602;SDS011;28233;55.748;48.752;2022-10-16T01:35:46;9.90;;;3.78;;
42602;SDS011;28233;55.748;48.752;2022-10-16T01:38:03;5.28;;;2.85;;
42602;SDS011;28233;55.748;48.752;2022-10-16T01:40:12;15.15;;;4.10;;
42602;SDS011;28233;55.748;48.752;2022-10-16T01:42:21;6.97;;;3.05;;
42602;SDS011;28233;55.748;48.752;2022-10-16T01:44:29;9.90;;;3.58;;
42602;SDS011;28233;55.748;48.752;2022-10-16T01:46:35;10.40;;;4.20;;
42602;SDS011;28233;55.748;48.752;2022-10-16T01:48:41;7.18;;;3.58;;
42602;SDS011;28233;55.748;48.752;2022-10-16T01:50:44;7.57;;;3.55;;
42602;SDS011;28233;55.748;48.752;2022-10-16T01:52:57;8.40;;;4.38;;
42602;SDS011;28233;55.748;48.752;2022-10-16T01:55:01;10.05;;;3.60;;
42602;SDS011;28233;55.748;48.752;2022-10-16T01:57:07;9.60;;;4.15;;
42602;SDS011;28233;55.748;48.752;2022-10-16T01:59:12;7.72;;;3.85;;
42602;SDS011;28233;55.748;48.752;2022-10-16T02:01:19;8.40;;;4.03;;
42602;SDS011;28233;55.748;48.752;2022-10-16T02:03:24;9.68;;;5.03;;
42602;SDS011;28233;55.748;48.752;2022-10-16T02:07:44;9.18;;;4.90;;
42602;SDS011;28233;55.748;48.752;2022-10-16T02:09:46;14.18;;;6.32;;
42602;SDS011;28233;55.748;48.752;2022-10-16T02:11:50;15.02;;;6.35;;
42602;SDS011;28233;55.748;48.752;2022-10-16T02:14:00;11.48;;;4.97;;
42602;SDS011;28233;55.748;48.752;2022-10-16T02:16:06;7.35;;;4.28;;
42602;SDS011;28233;55.748;48.752;2022-10-16T02:18:09;8.27;;;4.45;;
42602;SDS011;28233;55.748;48.752;2022-10-16T02:20:12;6.80;;;3.33;;
42602;SDS011;28233;55.748;48.752;2022-10-16T02:22:17;6.70;;;3.80;;
42602;SDS011;28233;55.748;48.752;2022-10-16T02:26:41;14.50;;;3.75;;
42602;SDS011;28233;55.748;48.752;2022-10-16T02:28:54;6.97;;;4.07;;
42602;SDS011;28233;55.748;48.752;2022-10-16T02:31:03;9.75;;;4.38;;
42602;SDS011;28233;55.748;48.752;2022-10-16T02:33:09;7.88;;;3.90;;
42602;SDS011;28233;55.748;48.752;2022-10-16T02:35:16;10.82;;;4.38;;
42602;SDS011;28233;55.748;48.752;2022-10-16T02:37:20;8.50;;;4.15;;
42602;SDS011;28233;55.748;48.752;2022-10-16T02:39:23;8.43;;;4.65;;
42602;SDS011;28233;55.748;48.752;2022-10-16T02:41:26;10.20;;;4.63;;
42602;SDS011;28233;55.748;48.752;2022-10-16T02:43:30;9.65;;;4.18;;
42602;SDS011;28233;55.748;48.752;2022-10-16T02:45:32;7.95;;;3.75;;
42602;SDS011;28233;55.748;48.752;2022-10-16T02:47:35;7.35;;;3.83;;
42602;SDS011;28233;55.748;48.752;2022-10-16T02:49:38;6.55;;;3.83;;
42602;SDS011;28233;55.748;48.752;2022-10-16T02:51:41;6.22;;;3.70;;
42602;SDS011;28233;55.748;48.752;2022-10-16T02:53:43;5.93;;;3.85;;
42602;SDS011;28233;55.748;48.752;2022-10-16T02:55:46;6.57;;;3.65;;
42602;SDS011;28233;55.748;48.752;2022-10-16T02:57:49;9.82;;;4.15;;
42602;SDS011;28233;55.748;48.752;2022-10-16T02:59:51;5.65;;;3.35;;
42602;SDS011;28233;55.748;48.752;2022-10-16T03:01:54;4.20;;;3.20;;
42602;SDS011;28233;55.748;48.752;2022-10-16T03:03:57;7.05;;;3.60;;
42602;SDS011;28233;55.748;48.752;2022-10-16T03:05:59;6.05;;;3.55;;
42602;SDS011;28233;55.748;48.752;2022-10-16T03:08:02;7.20;;;3.67;;
42602;SDS011;28233;55.748;48.752;2022-10-16T03:10:05;7.75;;;3.85;;
42602;SDS011;28233;55.748;48.752;2022-10-16T03:12:08;7.20;;;3.60;;
42602;SDS011;28233;55.748;48.752;2022-10-16T03:14:10;4.75;;;3.13;;
42602;SDS011;28233;55.748;48.752;2022-10-16T03:16:13;8.45;;;4.45;;
42602;SDS011;28233;55.748;48.752;2022-10-16T03:18:16;6.18;;;3.58;;
42602;SDS011;28233;55.748;48.752;2022-10-16T03:20:18;6.05;;;4.05;;
42602;SDS011;28233;55.748;48.752;2022-10-16T03:22:21;8.60;;;3.85;;
42602;SDS011;28233;55.748;48.752;2022-10-16T03:24:23;5.72;;;3.53;;
42602;SDS011;28233;55.748;48.752;2022-10-16T03:26:26;5.80;;;3.38;;
42602;SDS011;28233;55.748;48.752;2022-10-16T03:28:29;6.93;;;3.35;;
42602;SDS011;28233;55.748;48.752;2022-10-16T03:30:31;8.15;;;3.33;;
42602;SDS011;28233;55.748;48.752;2022-10-16T03:32:34;6.10;;;2.90;;
42602;SDS011;28233;55.748;48.752;2022-10-16T03:34:42;5.22;;;2.83;;
42602;SDS011;28233;55.748;48.752;2022-10-16T03:36:44;6.63;;;2.92;;
42602;SDS011;28233;55.748;48.752;2022-10-16T03:38:47;6.03;;;3.05;;
42602;SDS011;28233;55.748;48.752;2022-10-16T03:40:49;5.18;;;3.53;;
42602;SDS011;28233;55.748;48.752;2022-10-16T03:42:52;4.35;;;3.22;;
42602;SDS011;28233;55.748;48.752;2022-10-16T03:44:57;6.90;;;3.78;;
42602;SDS011;28233;55.748;48.752;2022-10-16T03:46:59;5.72;;;3.33;;
42602;SDS011;28233;55.748;48.752;2022-10-16T03:49:02;5.07;;;2.78;;
42602;SDS011;28233;55.748;48.752;2022-10-16T03:51:10;5.53;;;3.25;;
42602;SDS011;28233;55.748;48.752;2022-10-16T03:53:13;7.63;;;3.25;;
42602;SDS011;28233;55.748;48.752;2022-10-16T03:55:16;5.50;;;3.10;;
42602;SDS011;28233;55.748;48.752;2022-10-16T03:57:19;4.53;;;2.90;;
42602;SDS011;28233;55.748;48.752;2022-10-16T03:59:22;5.30;;;2.80;;
42602;SDS011;28233;55.748;48.752;2022-10-16T04:01:25;5.72;;;2.95;;
42602;SDS011;28233;55.748;48.752;2022-10-16T04:03:28;3.38;;;2.42;;
42602;SDS011;28233;55.748;48.752;2022-10-16T04:05:31;7.28;;;3.05;;
42602;SDS011;28233;55.748;48.752;2022-10-16T04:07:33;6.22;;;2.67;;
42602;SDS011;28233;55.748;48.752;2022-10-16T04:09:36;5.40;;;2.83;;
42602;SDS011;28233;55.748;48.752;2022-10-16T04:11:39;4.88;;;3.17;;
42602;SDS011;28233;55.748;48.752;2022-10-16T04:13:42;4.75;;;2.80;;
42602;SDS011;28233;55.748;48.752;2022-10-16T04:15:44;6.05;;;2.70;;
42602;SDS011;28233;55.748;48.752;2022-10-16T04:17:47;5.90;;;3.08;;
42602;SDS011;28233;55.748;48.752;2022-10-16T04:19:50;8.85;;;2.95;;
42602;SDS011;28233;55.748;48.752;2022-10-16T04:21:53;4.07;;;2.55;;
42602;SDS011;28233;55.748;48.752;2022-10-16T04:23:55;5.75;;;2.42;;
42602;SDS011;28233;55.748;48.752;2022-10-16T04:25:59;4.60;;;2.50;;
42602;SDS011;28233;55.748;48.752;2022-10-16T04:28:02;4.60;;;2.25;;
42602;SDS011;28233;55.748;48.752;2022-10-16T04:30:05;5.07;;;2.35;;
42602;SDS011;28233;55.748;48.752;2022-10-16T04:32:08;5.78;;;3.40;;
42602;SDS011;28233;55.748;48.752;2022-10-16T04:34:11;5.88;;;2.67;;
42602;SDS011;28233;55.748;48.752;2022-10-16T04:36:14;7.18;;;3.50;;
42602;SDS011;28233;55.748;48.752;2022-10-16T04:38:16;4.78;;;2.85;;
42602;SDS011;28233;55.748;48.752;2022-10-16T04:40:19;6.20;;;3.58;;
42602;SDS011;28233;55.748;48.752;2022-10-16T04:42:22;4.32;;;3.00;;
42602;SDS011;28233;55.748;48.752;2022-10-16T04:44:24;3.80;;;2.50;;
42602;SDS011;28233;55.748;48.752;2022-10-16T04:46:27;3.63;;;2.60;;
42602;SDS011;28233;55.748;48.752;2022-10-16T04:48:30;6.15;;;3.30;;
42602;SDS011;28233;55.748;48.752;2022-10-16T04:50:33;6.63;;;3.70;;
42602;SDS011;28233;55.748;48.752;2022-10-16T04:52:36;6.63;;;3.15;;
42602;SDS011;28233;55.748;48.752;2022-10-16T04:54:38;4.97;;;3.35;;
42602;SDS011;28233;55.748;48.752;2022-10-16T04:56:42;4.85;;;3.42;;
42602;SDS011;28233;55.748;48.752;2022-10-16T04:58:52;4.90;;;3.20;;
42602;SDS011;28233;55.748;48.752;2022-10-16T05:00:55;4.35;;;2.88;;
42602;SDS011;28233;55.748;48.752;2022-10-16T05:02:58;7.88;;;3.50;;
42602;SDS011;28233;55.748;48.752;2022-10-16T05:05:02;5.28;;;3.53;;
42602;SDS011;28233;55.748;48.752;2022-10-16T05:07:05;7.53;;;3.50;;
42602;SDS011;28233;55.748;48.752;2022-10-16T05:09:08;9.40;;;3.53;;
42602;SDS011;28233;55.748;48.752;2022-10-16T05:11:10;6.05;;;3.30;;
42602;SDS011;28233;55.748;48.752;2022-10-16T05:13:13;4.65;;;3.28;;
42602;SDS011;28233;55.748;48.752;2022-10-16T05:15:16;7.63;;;3.72;;
42602;SDS011;28233;55.748;48.752;2022-10-16T05:17:19;7.63;;;3.33;;
42602;SDS011;28233;55.748;48.752;2022-10-16T05:19:21;6.63;;;3.22;;
42602;SDS011;28233;55.748;48.752;2022-10-16T05:21:28;8.32;;;3.25;;
42602;SDS011;28233;55.748;48.752;2022-10-16T05:23:31;6.95;;;3.72;;
42602;SDS011;28233;55.748;48.752;2022-10-16T05:25:34;7.85;;;3.45;;
42602;SDS011;28233;55.748;48.752;2022-10-16T05:27:37;4.13;;;3.08;;
42602;SDS011;28233;55.748;48.752;2022-10-16T05:29:39;5.82;;;3.85;;
42602;SDS011;28233;55.748;48.752;2022-10-16T05:31:42;6.55;;;3.80;;
42602;SDS011;28233;55.748;48.752;2022-10-16T05:33:45;8.18;;;3.83;;
42602;SDS011;28233;55.748;48.752;2022-10-16T05:35:47;6.20;;;3.08;;
42602;SDS011;28233;55.748;48.752;2022-10-16T05:37:52;9.95;;;3.95;;
42602;SDS011;28233;55.748;48.752;2022-10-16T05:39:54;4.95;;;2.83;;
42602;SDS011;28233;55.748;48.752;2022-10-16T05:41:57;11.60;;;4.43;;
42602;SDS011;28233;55.748;48.752;2022-10-16T05:44:00;15.65;;;3.90;;
42602;SDS011;28233;55.748;48.752;2022-10-16T05:46:06;5.53;;;3.35;;
42602;SDS011;28233;55.748;48.752;2022-10-16T05:48:09;6.18;;;4.05;;
42602;SDS011;28233;55.748;48.752;2022-10-16T05:50:11;7.45;;;3.53;;
42602;SDS011;28233;55.748;48.752;2022-10-16T05:52:14;5.55;;;3.83;;
42602;SDS011;28233;55.748;48.752;2022-10-16T05:54:16;5.20;;;3.45;;
42602;SDS011;28233;55.748;48.752;2022-10-16T05:56:19;6.50;;;3.47;;
42602;SDS011;28233;55.748;48.752;2022-10-16T05:58:25;5.97;;;3.72;;
42602;SDS011;28233;55.748;48.752;2022-10-16T06:00:31;6.82;;;3.88;;
42602;SDS011;28233;55.748;48.752;2022-10-16T06:02:34;8.07;;;4.60;;
42602;SDS011;28233;55.748;48.752;2022-10-16T06:04:37;4.03;;;3.30;;
42602;SDS011;28233;55.748;48.752;2022-10-16T06:06:40;6.43;;;3.97;;
42602;SDS011;28233;55.748;48.752;2022-10-16T06:08:43;6.05;;;3.55;;
42602;SDS011;28233;55.748;48.752;2022-10-16T06:10:47;15.20;;;4.28;;
42602;SDS011;28233;55.748;48.752;2022-10-16T06:12:50;12.00;;;3.88;;
42602;SDS011;28233;55.748;48.752;2022-10-16T06:14:53;7.78;;;3.25;;
42602;SDS011;28233;55.748;48.752;2022-10-16T06:16:56;9.48;;;5.43;;
42602;SDS011;28233;55.748;48.752;2022-10-16T06:18:58;6.97;;;3.60;;
42602;SDS011;28233;55.748;48.752;2022-10-16T06:21:12;9.00;;;3.40;;
42602;SDS011;28233;55.748;48.752;2022-10-16T06:23:18;7.10;;;3.65;;
42602;SDS011;28233;55.748;48.752;2022-10-16T06:25:21;6.22;;;3.40;;
42602;SDS011;28233;55.748;48.752;2022-10-16T06:27:23;5.93;;;3.30;;
42602;SDS011;28233;55.748;48.752;2022-10-16T06:29:27;5.88;;;4.05;;
42602;SDS011;28233;55.748;48.752;2022-10-16T06:31:29;8.68;;;4.65;;
42602;SDS011;28233;55.748;48.752;2022-10-16T06:33:35;5.72;;;3.65;;
42602;SDS011;28233;55.748;48.752;2022-10-16T06:35:39;8.23;;;4.60;;
42602;SDS011;28233;55.748;48.752;2022-10-16T06:37:41;11.45;;;4.55;;
42602;SDS011;28233;55.748;48.752;2022-10-16T06:39:44;9.68;;;4.97;;
42602;SDS011;28233;55.748;48.752;2022-10-16T06:41:47;8.82;;;4.55;;
42602;SDS011;28233;55.748;48.752;2022-10-16T06:43:50;7.05;;;4.38;;
42602;SDS011;28233;55.748;48.752;2022-10-16T06:45:54;9.05;;;4.53;;
42602;SDS011;28233;55.748;48.752;2022-10-16T06:47:58;6.95;;;4.93;;
42602;SDS011;28233;55.748;48.752;2022-10-16T06:50:01;9.55;;;4.68;;
42602;SDS011;28233;55.748;48.752;2022-10-16T06:52:04;11.98;;;5.15;;
42602;SDS011;28233;55.748;48.752;2022-10-16T06:54:07;7.68;;;4.60;;
42602;SDS011;28233;55.748;48.752;2022-10-16T06:56:14;8.43;;;4.97;;
42602;SDS011;28233;55.748;48.752;2022-10-16T06:58:24;7.18;;;4.50;;
42602;SDS011;28233;55.748;48.752;2022-10-16T07:00:27;7.82;;;5.07;;
42602;SDS011;28233;55.748;48.752;2022-10-16T07:02:30;10.65;;;4.25;;
42602;SDS011;28233;55.748;48.752;2022-10-16T07:04:33;9.98;;;4.53;;
42602;SDS011;28233;55.748;48.752;2022-10-16T07:06:35;7.57;;;4.13;;
42602;SDS011;28233;55.748;48.752;2022-10-16T07:08:39;11.48;;;5.18;;
42602;SDS011;28233;55.748;48.752;2022-10-16T07:10:43;12.10;;;5.05;;
42602;SDS011;28233;55.748;48.752;2022-10-16T07:12:45;6.72;;;4.50;;
42602;SDS011;28233;55.748;48.752;2022-10-16T07:14:48;6.53;;;4.00;;
42602;SDS011;28233;55.748;48.752;2022-10-16T07:16:54;7.28;;;4.70;;
42602;SDS011;28233;55.748;48.752;2022-10-16T07:18:57;7.85;;;4.80;;
42602;SDS011;28233;55.748;48.752;2022-10-16T07:21:03;6.43;;;4.00;;
42602;SDS011;28233;55.748;48.752;2022-10-16T07:23:13;10.80;;;4.40;;
42602;SDS011;28233;55.748;48.752;2022-10-16T07:25:16;8.15;;;4.72;;
42602;SDS011;28233;55.748;48.752;2022-10-16T07:27:18;11.55;;;4.97;;
42602;SDS011;28233;55.748;48.752;2022-10-16T07:29:21;7.93;;;4.38;;
42602;SDS011;28233;55.748;48.752;2022-10-16T07:31:24;7.40;;;4.75;;
42602;SDS011;28233;55.748;48.752;2022-10-16T07:33:27;10.25;;;5.38;;
42602;SDS011;28233;55.748;48.752;2022-10-16T07:35:30;7.00;;;4.22;;
42602;SDS011;28233;55.748;48.752;2022-10-16T07:37:33;9.68;;;4.60;;
42602;SDS011;28233;55.748;48.752;2022-10-16T07:39:36;7.75;;;4.72;;
42602;SDS011;28233;55.748;48.752;2022-10-16T07:41:39;6.40;;;4.30;;
42602;SDS011;28233;55.748;48.752;2022-10-16T07:43:48;7.80;;;4.38;;
42602;SDS011;28233;55.748;48.752;2022-10-16T07:45:53;12.15;;;4.82;;
42602;SDS011;28233;55.748;48.752;2022-10-16T07:47:59;9.68;;;4.65;;
42602;SDS011;28233;55.748;48.752;2022-10-16T07:50:01;5.88;;;4.03;;
42602;SDS011;28233;55.748;48.752;2022-10-16T07:52:04;7.50;;;4.22;;
42602;SDS011;28233;55.748;48.752;2022-10-16T07:54:08;14.75;;;4.43;;
42602;SDS011;28233;55.748;48.752;2022-10-16T07:56:13;5.40;;;4.22;;
42602;SDS011;28233;55.748;48.752;2022-10-16T07:58:17;7.88;;;4.18;;
42602;SDS011;28233;55.748;48.752;2022-10-16T08:00:19;6.22;;;4.43;;
42602;SDS011;28233;55.748;48.752;2022-10-16T08:02:22;6.68;;;4.05;;
42602;SDS011;28233;55.748;48.752;2022-10-16T08:04:25;5.63;;;4.05;;
42602;SDS011;28233;55.748;48.752;2022-10-16T08:06:27;7.57;;;4.57;;
42602;SDS011;28233;55.748;48.752;2022-10-16T08:08:30;10.25;;;4.55;;
42602;SDS011;28233;55.748;48.752;2022-10-16T08:10:33;8.98;;;4.68;;
42602;SDS011;28233;55.748;48.752;2022-10-16T08:12:36;4.65;;;3.60;;
42602;SDS011;28233;55.748;48.752;2022-10-16T08:14:39;6.95;;;4.18;;
42602;SDS011;28233;55.748;48.752;2022-10-16T08:16:46;9.30;;;4.53;;
42602;SDS011;28233;55.748;48.752;2022-10-16T08:18:50;7.60;;;4.07;;
42602;SDS011;28233;55.748;48.752;2022-10-16T08:20:57;5.55;;;3.72;;
42602;SDS011;28233;55.748;48.752;2022-10-16T08:23:02;13.23;;;3.92;;
42602;SDS011;28233;55.748;48.752;2022-10-16T08:25:05;5.55;;;3.85;;
42602;SDS011;28233;55.748;48.752;2022-10-16T08:27:08;4.53;;;3.80;;
42602;SDS011;28233;55.748;48.752;2022-10-16T08:29:11;8.82;;;4.18;;
42602;SDS011;28233;55.748;48.752;2022-10-16T08:31:15;6.38;;;3.78;;
42602;SDS011;28233;55.748;48.752;2022-10-16T08:33:23;6.97;;;4.88;;
42602;SDS011;28233;55.748;48.752;2022-10-16T08:35:26;7.68;;;4.00;;
42602;SDS011;28233;55.748;48.752;2022-10-16T08:37:32;8.40;;;3.88;;
42602;SDS011;28233;55.748;48.752;2022-10-16T08:39:35;8.20;;;3.67;;
42602;SDS011;28233;55.748;48.752;2022-10-16T08:41:49;7.43;;;3.53;;
42602;SDS011;28233;55.748;48.752;2022-10-16T08:46:31;6.85;;;3.90;;
42602;SDS011;28233;55.748;48.752;2022-10-16T08:49:05;9.13;;;3.95;;
42602;SDS011;28233;55.748;48.752;2022-10-16T08:51:18;5.45;;;3.38;;
42602;SDS011;28233;55.748;48.752;2022-10-16T08:53:42;9.63;;;4.50;;
42602;SDS011;28233;55.748;48.752;2022-10-16T08:55:51;5.85;;;4.35;;
42602;SDS011;28233;55.748;48.752;2022-10-16T08:57:55;5.93;;;3.65;;
42602;SDS011;28233;55.748;48.752;2022-10-16T09:00:08;7.85;;;4.00;;
42602;SDS011;28233;55.748;48.752;2022-10-16T09:02:27;7.28;;;3.22;;
42602;SDS011;28233;55.748;48.752;2022-10-16T09:12:19;10.88;;;3.67;;
42602;SDS011;28233;55.748;48.752;2022-10-16T09:16:44;8.05;;;3.08;;
42602;SDS011;28233;55.748;48.752;2022-10-16T09:23:25;7.13;;;3.63;;
42602;SDS011;28233;55.748;48.752;2022-10-16T09:25:30;4.88;;;3.45;;
42602;SDS011;28233;55.748;48.752;2022-10-16T09:27:34;6.90;;;3.60;;
42602;SDS011;28233;55.748;48.752;2022-10-16T09:29:37;11.23;;;4.38;;
42602;SDS011;28233;55.748;48.752;2022-10-16T09:31:40;9.75;;;4.10;;
42602;SDS011;28233;55.748;48.752;2022-10-16T09:33:44;7.88;;;4.15;;
42602;SDS011;28233;55.748;48.752;2022-10-16T09:35:54;8.02;;;3.80;;
42602;SDS011;28233;55.748;48.752;2022-10-16T09:38:00;7.03;;;4.28;;
42602;SDS011;28233;55.748;48.752;2022-10-16T09:40:03;6.13;;;4.15;;
42602;SDS011;28233;55.748;48.752;2022-10-16T09:42:10;6.30;;;3.80;;
42602;SDS011;28233;55.748;48.752;2022-10-16T09:44:29;6.63;;;3.33;;
42602;SDS011;28233;55.748;48.752;2022-10-16T09:46:34;7.28;;;3.90;;
42602;SDS011;28233;55.748;48.752;2022-10-16T09:48:44;5.97;;;3.63;;
42602;SDS011;28233;55.748;48.752;2022-10-16T09:50:55;6.05;;;3.20;;
42602;SDS011;28233;55.748;48.752;2022-10-16T09:53:04;6.55;;;3.63;;
42602;SDS011;28233;55.748;48.752;2022-10-16T09:55:16;7.40;;;3.88;;
42602;SDS011;28233;55.748;48.752;2022-10-16T09:57:20;8.27;;;4.18;;
42602;SDS011;28233;55.748;48.752;2022-10-16T09:59:24;7.32;;;3.63;;
42602;SDS011;28233;55.748;48.752;2022-10-16T10:01:35;5.70;;;3.97;;
42602;SDS011;28233;55.748;48.752;2022-10-16T10:05:47;5.72;;;3.33;;
42602;SDS011;28233;55.748;48.752;2022-10-16T10:07:55;8.40;;;4.32;;
42602;SDS011;28233;55.748;48.752;2022-10-16T10:10:04;8.77;;;4.00;;
42602;SDS011;28233;55.748;48.752;2022-10-16T10:16:39;8.95;;;4.13;;
42602;SDS011;28233;55.748;48.752;2022-10-16T10:18:41;6.13;;;3.42;;
42602;SDS011;28233;55.748;48.752;2022-10-16T10:20:44;8.90;;;4.38;;
42602;SDS011;28233;55.748;48.752;2022-10-16T10:22:47;5.53;;;3.65;;
42602;SDS011;28233;55.748;48.752;2022-10-16T10:29:21;12.32;;;3.78;;
42602;SDS011;28233;55.748;48.752;2022-10-16T10:31:41;5.38;;;3.38;;
42602;SDS011;28233;55.748;48.752;2022-10-16T10:34:01;5.20;;;3.33;;
42602;SDS011;28233;55.748;48.752;2022-10-16T10:38:43;7.40;;;3.97;;
42602;SDS011;28233;55.748;48.752;2022-10-16T10:46:03;8.02;;;3.40;;
42602;SDS011;28233;55.748;48.752;2022-10-16T10:53:07;8.68;;;4.28;;
42602;SDS011;28233;55.748;48.752;2022-10-16T10:55:31;12.77;;;4.18;;
42602;SDS011;28233;55.748;48.752;2022-10-16T10:57:45;8.00;;;3.97;;
42602;SDS011;28233;55.748;48.752;2022-10-16T11:07:01;6.72;;;3.85;;
42602;SDS011;28233;55.748;48.752;2022-10-16T11:11:27;10.65;;;4.53;;
42602;SDS011;28233;55.748;48.752;2022-10-16T11:16:23;12.05;;;4.80;;
42602;SDS011;28233;55.748;48.752;2022-10-16T11:18:46;8.95;;;4.03;;
42602;SDS011;28233;55.748;48.752;2022-10-16T11:21:00;8.85;;;3.70;;
42602;SDS011;28233;55.748;48.752;2022-10-16T11:23:25;7.53;;;3.35;;
42602;SDS011;28233;55.748;48.752;2022-10-16T11:25:33;9.70;;;3.33;;
42602;SDS011;28233;55.748;48.752;2022-10-16T11:30:02;7.40;;;3.42;;
42602;SDS011;28233;55.748;48.752;2022-10-16T11:32:14;9.30;;;4.00;;
42602;SDS011;28233;55.748;48.752;2022-10-16T11:36:58;6.50;;;3.53;;
42602;SDS011;28233;55.748;48.752;2022-10-16T11:45:45;5.90;;;2.85;;
42602;SDS011;28233;55.748;48.752;2022-10-16T11:48:36;8.20;;;3.63;;
42602;SDS011;28233;55.748;48.752;2022-10-16T11:51:11;7.22;;;2.85;;
42602;SDS011;28233;55.748;48.752;2022-10-16T11:55:04;11.95;;;3.45;;
42602;SDS011;28233;55.748;48.752;2022-10-16T11:57:27;9.65;;;3.63;;
42602;SDS011;28233;55.748;48.752;2022-10-16T12:01:54;5.63;;;2.42;;
42602;SDS011;28233;55.748;48.752;2022-10-16T12:11:37;8.63;;;3.80;;
42602;SDS011;28233;55.748;48.752;2022-10-16T12:13:42;5.85;;;3.03;;
42602;SDS011;28233;55.748;48.752;2022-10-16T12:15:45;10.55;;;2.85;;
42602;SDS011;28233;55.748;48.752;2022-10-16T12:18:00;9.45;;;3.13;;
42602;SDS011;28233;55.748;48.752;2022-10-16T12:22:15;5.30;;;3.03;;
42602;SDS011;28233;55.748;48.752;2022-10-16T12:26:33;7.70;;;3.03;;
42602;SDS011;28233;55.748;48.752;2022-10-16T12:28:40;6.05;;;3.17;;
42602;SDS011;28233;55.748;48.752;2022-10-16T12:30:51;4.60;;;2.90;;
42602;SDS011;28233;55.748;48.752;2022-10-16T12:33:02;5.95;;;2.50;;
42602;SDS011;28233;55.748;48.752;2022-10-16T12:35:22;7.82;;;2.80;;
42602;SDS011;28233;55.748;48.752;2022-10-16T12:37:37;6.20;;;2.58;;
42602;SDS011;28233;55.748;48.752;2022-10-16T12:39:40;4.72;;;2.13;;
42602;SDS011;28233;55.748;48.752;2022-10-16T12:41:43;5.88;;;3.00;;
42602;SDS011;28233;55.748;48.752;2022-10-16T12:43:46;6.53;;;2.30;;
42602;SDS011;28233;55.748;48.752;2022-10-16T12:45:59;7.05;;;2.63;;
42602;SDS011;28233;55.748;48.752;2022-10-16T12:48:18;7.43;;;2.22;;
42602;SDS011;28233;55.748;48.752;2022-10-16T12:50:34;4.03;;;2.22;;
42602;SDS011;28233;55.748;48.752;2022-10-16T12:52:41;3.53;;;2.00;;
42602;SDS011;28233;55.748;48.752;2022-10-16T12:54:46;4.00;;;2.10;;
42602;SDS011;28233;55.748;48.752;2022-10-16T13:01:58;4.38;;;1.80;;
42602;SDS011;28233;55.748;48.752;2022-10-16T13:12:27;4.55;;;3.00;;
42602;SDS011;28233;55.748;48.752;2022-10-16T13:17:45;6.15;;;3.63;;
42602;SDS011;28233;55.748;48.752;2022-10-16T13:22:18;11.85;;;5.45;;
42602;SDS011;28233;55.748;48.752;2022-10-16T13:30:17;9.07;;;3.25;;
42602;SDS011;28233;55.748;48.752;2022-10-16T13:32:31;9.60;;;4.57;;
42602;SDS011;28233;55.748;48.752;2022-10-16T13:34:41;7.55;;;3.90;;
42602;SDS011;28233;55.748;48.752;2022-10-16T13:36:48;6.85;;;4.53;;
42602;SDS011;28233;55.748;48.752;2022-10-16T13:39:00;7.47;;;4.00;;
42602;SDS011;28233;55.748;48.752;2022-10-16T13:41:17;9.60;;;4.28;;
42602;SDS011;28233;55.748;48.752;2022-10-16T13:45:36;5.95;;;2.45;;
42602;SDS011;28233;55.748;48.752;2022-10-16T13:47:39;4.63;;;2.53;;
42602;SDS011;28233;55.748;48.752;2022-10-16T13:49:42;6.05;;;2.03;;
42602;SDS011;28233;55.748;48.752;2022-10-16T13:51:57;5.47;;;1.77;;
42602;SDS011;28233;55.748;48.752;2022-10-16T13:54:01;4.38;;;2.20;;
42602;SDS011;28233;55.748;48.752;2022-10-16T13:56:05;6.68;;;2.40;;
42602;SDS011;28233;55.748;48.752;2022-10-16T13:58:12;7.95;;;2.22;;
42602;SDS011;28233;55.748;48.752;2022-10-16T14:04:39;4.65;;;2.70;;
42602;SDS011;28233;55.748;48.752;2022-10-16T14:06:43;10.63;;;2.97;;
42602;SDS011;28233;55.748;48.752;2022-10-16T14:08:49;6.47;;;2.75;;
42602;SDS011;28233;55.748;48.752;2022-10-16T14:11:20;5.05;;;2.58;;
42602;SDS011;28233;55.748;48.752;2022-10-16T14:13:38;7.80;;;3.83;;
42602;SDS011;28233;55.748;48.752;2022-10-16T14:15:49;5.78;;;3.47;;
42602;SDS011;28233;55.748;48.752;2022-10-16T14:17:53;13.00;;;7.95;;
42602;SDS011;28233;55.748;48.752;2022-10-16T14:19:58;15.43;;;8.73;;
42602;SDS011;28233;55.748;48.752;2022-10-16T14:22:18;7.35;;;3.33;;
42602;SDS011;28233;55.748;48.752;2022-10-16T14:24:31;18.13;;;6.47;;
42602;SDS011;28233;55.748;48.752;2022-10-16T14:26:40;10.80;;;4.35;;
42602;SDS011;28233;55.748;48.752;2022-10-16T14:29:09;10.95;;;4.78;;
42602;SDS011;28233;55.748;48.752;2022-10-16T14:31:33;7.80;;;4.10;;